Time;durP1;ratioP1;P1;durP2;ratioP2;P2;SDS_P1;SDS_P2;PMS_P1;PMS_P2;Temp;Humidity;BMP_temperature;BMP_pressure;BME280_temperature;BME280_humidity;BME280_pressure;Samples;Min_cycle;Max_cycle;Signal;HPM_P1;HPM_P2
2021/05/24 00:01:09;;;;;;;3.55;1.02;;;;;;;;;;4910171;29;20043;-59
2021/05/24 00:03:35;;;;;;;7.28;1.38;;;;;;;;;;4905413;29;20051;-61
2021/05/24 00:06:02;;;;;;;4.95;1.02;;;;;;;;;;4926245;29;20555;-59
2021/05/24 00:08:28;;;;;;;5.03;0.98;;;;;;;;;;4906757;29;20067;-61
2021/05/24 00:10:54;;;;;;;5.22;0.85;;;;;;;;;;4908711;29;20058;-61
2021/05/24 00:13:21;;;;;;;1.38;0.85;;;;;;;;;;4905609;29;20056;-61
2021/05/24 00:15:50;;;;;;;2.83;0.88;;;;;;;;;;4908990;29;20052;-61
2021/05/24 00:18:16;;;;;;;4.90;1.10;;;;;;;;;;4905530;29;20036;-61
2021/05/24 00:20:43;;;;;;;4.25;1.35;;;;;;;;;;4925580;29;20055;-61
2021/05/24 00:23:09;;;;;;;2.47;1.10;;;;;;;;;;4908151;29;20036;-59
2021/05/24 00:25:35;;;;;;;2.33;1.08;;;;;;;;;;4902503;29;20451;-62
2021/05/24 00:28:01;;;;;;;3.50;0.98;;;;;;;;;;4892850;29;20060;-61
2021/05/24 00:30:32;;;;;;;5.03;1.77;;;;;;;;;;4918629;29;20122;-59
2021/05/24 00:32:59;;;;;;;4.15;1.30;;;;;;;;;;4921439;29;20055;-61
2021/05/24 00:35:26;;;;;;;2.00;0.80;;;;;;;;;;4898357;29;20103;-60
2021/05/24 00:37:52;;;;;;;5.97;0.82;;;;;;;;;;4909040;29;20080;-60
2021/05/24 00:40:19;;;;;;;1.75;0.63;;;;;;;;;;4911804;29;20051;-59
2021/05/24 00:42:45;;;;;;;3.38;0.80;;;;;;;;;;4926321;29;20052;-60
2021/05/24 00:45:12;;;;;;;1.70;0.75;;;;;;;;;;4920543;29;20334;-61
2021/05/24 00:47:38;;;;;;;3.47;0.65;;;;;;;;;;4905307;29;20047;-61
2021/05/24 00:50:05;;;;;;;5.88;0.98;;;;;;;;;;4920127;29;20028;-61
2021/05/24 00:52:31;;;;;;;2.00;0.82;;;;;;;;;;4925335;29;20056;-62
2021/05/24 00:54:57;;;;;;;2.47;0.80;;;;;;;;;;4906041;29;20359;-59
2021/05/24 00:57:23;;;;;;;4.45;0.73;;;;;;;;;;4911518;29;20051;-59
2021/05/24 00:59:50;;;;;;;2.00;0.70;;;;;;;;;;4928068;29;20040;-60
2021/05/24 01:02:17;;;;;;;2.70;0.70;;;;;;;;;;4927582;29;20064;-60
2021/05/24 01:04:43;;;;;;;3.65;0.93;;;;;;;;;;4911711;29;20060;-60
2021/05/24 01:07:10;;;;;;;4.95;0.77;;;;;;;;;;4906530;29;20052;-61
2021/05/24 01:09:36;;;;;;;2.92;0.82;;;;;;;;;;4910630;29;20044;-60
2021/05/24 01:12:02;;;;;;;2.28;0.70;;;;;;;;;;4924947;29;20035;-59
2021/05/24 01:14:28;;;;;;;1.63;0.80;;;;;;;;;;4926930;29;20052;-59
2021/05/24 01:16:55;;;;;;;1.08;0.50;;;;;;;;;;4925440;29;20402;-62
2021/05/24 01:19:21;;;;;;;2.10;0.68;;;;;;;;;;4909260;29;20401;-57
2021/05/24 01:21:48;;;;;;;1.38;0.57;;;;;;;;;;4908169;29;20064;-58
2021/05/24 01:24:14;;;;;;;3.22;0.65;;;;;;;;;;4928133;29;20048;-60
2021/05/24 01:26:43;;;;;;;1.50;0.70;;;;;;;;;;4907557;29;20474;-59
2021/05/24 01:29:09;;;;;;;;;;;;;;;;;;4927978;29;20051;-60
2021/05/24 01:31:35;;;;;;;0.80;0.52;;;;;;;;;;4905826;29;19922;-60
2021/05/24 01:34:01;;;;;;;2.33;0.70;;;;;;;;;;4911248;29;20054;-61
2021/05/24 01:36:27;;;;;;;2.50;0.70;;;;;;;;;;4900743;29;20073;-61
2021/05/24 01:38:55;;;;;;;0.80;0.50;;;;;;;;;;4910857;29;20040;-61
2021/05/24 01:41:21;;;;;;;2.25;0.70;;;;;;;;;;4928621;29;20050;-61
2021/05/24 01:43:47;;;;;;;1.95;0.50;;;;;;;;;;4921359;29;20040;-61
2021/05/24 01:46:13;;;;;;;2.67;0.77;;;;;;;;;;4903130;29;20047;-61
2021/05/24 01:48:40;;;;;;;1.15;0.60;;;;;;;;;;4909395;29;20085;-61
2021/05/24 01:51:06;;;;;;;1.88;0.80;;;;;;;;;;4928116;29;20044;-60
2021/05/24 01:53:33;;;;;;;4.22;0.70;;;;;;;;;;4908556;29;20036;-59
2021/05/24 01:56:00;;;;;;;2.55;0.60;;;;;;;;;;4925935;29;20051;-59
2021/05/24 01:58:27;;;;;;;2.03;0.60;;;;;;;;;;4907581;29;20298;-61
2021/05/24 02:00:53;;;;;;;2.00;0.80;;;;;;;;;;4905996;29;20050;-59
2021/05/24 02:03:19;;;;;;;7.28;0.90;;;;;;;;;;4908182;29;20052;-59
2021/05/24 02:05:45;;;;;;;0.65;0.47;;;;;;;;;;4902057;29;20044;-60
2021/05/24 02:08:11;;;;;;;3.22;0.70;;;;;;;;;;4906825;29;20095;-60
2021/05/24 02:10:39;;;;;;;0.93;0.60;;;;;;;;;;4927834;29;20047;-61
2021/05/24 02:13:07;;;;;;;0.68;0.60;;;;;;;;;;4923102;29;20054;-61
2021/05/24 02:15:34;;;;;;;2.80;0.88;;;;;;;;;;4909308;29;20032;-59
2021/05/24 02:18:00;;;;;;;5.60;0.80;;;;;;;;;;4906640;29;20050;-59
2021/05/24 02:20:29;;;;;;;0.50;0.50;;;;;;;;;;4908979;29;20048;-61
2021/05/24 02:22:56;;;;;;;4.07;0.68;;;;;;;;;;4925212;29;20054;-60
2021/05/24 02:25:22;;;;;;;4.90;0.65;;;;;;;;;;4905445;29;20051;-60
2021/05/24 02:27:49;;;;;;;3.80;1.10;;;;;;;;;;4927652;29;20040;-60
2021/05/24 02:30:18;;;;;;;4.63;0.70;;;;;;;;;;4906936;29;20103;-59
2021/05/24 02:32:44;;;;;;;1.02;0.50;;;;;;;;;;4909808;29;20116;-58
2021/05/24 02:35:12;;;;;;;2.97;0.80;;;;;;;;;;4907117;29;20028;-60
2021/05/24 02:37:38;;;;;;;6.78;0.73;;;;;;;;;;4910520;29;20044;-60
2021/05/24 02:40:05;;;;;;;4.47;0.90;;;;;;;;;;4923108;29;20146;-60
2021/05/24 02:42:30;;;;;;;1.85;0.50;;;;;;;;;;4910567;29;20062;-58
2021/05/24 02:44:57;;;;;;;2.67;0.60;;;;;;;;;;4905554;29;20048;-59
2021/05/24 02:47:23;;;;;;;5.50;0.70;;;;;;;;;;4927964;29;20050;-61
2021/05/24 02:49:49;;;;;;;1.80;0.65;;;;;;;;;;4907382;29;20039;-61
2021/05/24 02:52:15;;;;;;;3.25;0.57;;;;;;;;;;4910512;29;20092;-61
2021/05/24 02:54:41;;;;;;;1.42;0.60;;;;;;;;;;4921708;29;20051;-59
2021/05/24 02:57:08;;;;;;;2.65;0.57;;;;;;;;;;4925611;29;20040;-61
2021/05/24 02:59:34;;;;;;;2.20;0.80;;;;;;;;;;4907746;29;20040;-61
2021/05/24 03:02:02;;;;;;;3.15;0.77;;;;;;;;;;4914346;29;20047;-61
2021/05/24 03:04:29;;;;;;;2.17;0.60;;;;;;;;;;4913076;29;20068;-60
2021/05/24 03:06:55;;;;;;;1.77;0.68;;;;;;;;;;4907270;29;20063;-60
2021/05/24 03:09:21;;;;;;;3.70;1.10;;;;;;;;;;4925614;29;20058;-59
2021/05/24 03:11:47;;;;;;;2.85;0.70;;;;;;;;;;4907301;29;20044;-60
2021/05/24 03:14:13;;;;;;;1.65;0.70;;;;;;;;;;4910303;29;20040;-60
2021/05/24 03:16:39;;;;;;;4.03;0.60;;;;;;;;;;4904600;29;20062;-61
2021/05/24 03:19:06;;;;;;;1.48;0.50;;;;;;;;;;4909898;29;20036;-58
2021/05/24 03:21:33;;;;;;;2.63;0.80;;;;;;;;;;4923343;29;20039;-61
2021/05/24 03:23:59;;;;;;;3.17;0.77;;;;;;;;;;4909188;29;20048;-60
2021/05/24 03:26:25;;;;;;;2.53;0.60;;;;;;;;;;4903821;29;20071;-61
2021/05/24 03:28:51;;;;;;;1.40;0.60;;;;;;;;;;4908599;29;20138;-61
2021/05/24 03:31:17;;;;;;;9.30;0.60;;;;;;;;;;4917636;29;20048;-59
2021/05/24 03:33:43;;;;;;;2.60;0.63;;;;;;;;;;4917384;29;20043;-60
2021/05/24 03:36:09;;;;;;;3.83;0.63;;;;;;;;;;4924200;29;20064;-59
2021/05/24 03:38:36;;;;;;;1.75;0.60;;;;;;;;;;4909438;29;20063;-57
2021/05/24 03:41:03;;;;;;;3.60;0.50;;;;;;;;;;4914181;29;20099;-60
2021/05/24 03:43:29;;;;;;;2.33;0.50;;;;;;;;;;4904912;29;20052;-60
2021/05/24 03:45:55;;;;;;;1.83;0.52;;;;;;;;;;4909669;29;20040;-59
2021/05/24 03:48:21;;;;;;;1.10;0.50;;;;;;;;;;4906688;29;20092;-61
2021/05/24 03:50:49;;;;;;;1.50;0.60;;;;;;;;;;4927047;29;20055;-59
2021/05/24 03:53:15;;;;;;;4.85;0.60;;;;;;;;;;4905480;29;20039;-61
2021/05/24 03:55:42;;;;;;;2.15;0.63;;;;;;;;;;4909818;29;20083;-59
2021/05/24 03:58:08;;;;;;;4.53;0.55;;;;;;;;;;4906352;29;20036;-60
2021/05/24 04:00:35;;;;;;;2.28;0.55;;;;;;;;;;4909154;29;20047;-59
2021/05/24 04:03:02;;;;;;;2.15;0.40;;;;;;;;;;4910507;29;20072;-60
2021/05/24 04:05:31;;;;;;;6.50;0.85;;;;;;;;;;4908836;29;20035;-58
2021/05/24 04:07:58;;;;;;;4.38;0.70;;;;;;;;;;4918422;29;20056;-61
2021/05/24 04:10:27;;;;;;;1.60;0.55;;;;;;;;;;4905276;29;20172;-60
2021/05/24 04:12:54;;;;;;;2.13;0.82;;;;;;;;;;4906123;29;20039;-59
2021/05/24 04:15:20;;;;;;;2.60;0.70;;;;;;;;;;4909604;29;20043;-59
2021/05/24 04:17:48;;;;;;;1.45;0.55;;;;;;;;;;4905004;29;20050;-61
2021/05/24 04:20:14;;;;;;;2.33;0.73;;;;;;;;;;4926537;29;20058;-60
2021/05/24 04:22:40;;;;;;;3.80;0.80;;;;;;;;;;4908988;29;20051;-60
2021/05/24 04:25:07;;;;;;;3.15;0.52;;;;;;;;;;4921068;29;20040;-60
2021/05/24 04:27:33;;;;;;;2.80;0.90;;;;;;;;;;4921581;29;20044;-60
2021/05/24 04:30:00;;;;;;;2.10;0.60;;;;;;;;;;4901334;29;20059;-59
2021/05/24 04:32:25;;;;;;;1.33;0.60;;;;;;;;;;4908757;29;20047;-61
2021/05/24 04:34:51;;;;;;;0.88;0.50;;;;;;;;;;4905722;29;20063;-60
2021/05/24 04:37:17;;;;;;;2.53;0.70;;;;;;;;;;4925706;29;20052;-59
2021/05/24 04:39:45;;;;;;;2.08;0.60;;;;;;;;;;4907485;29;20039;-61
2021/05/24 04:42:12;;;;;;;4.18;0.80;;;;;;;;;;4895547;29;20048;-59
2021/05/24 04:44:39;;;;;;;3.10;0.75;;;;;;;;;;4915321;29;20104;-60
2021/05/24 04:47:06;;;;;;;2.83;0.80;;;;;;;;;;4924627;29;20080;-60
2021/05/24 04:49:32;;;;;;;1.88;0.80;;;;;;;;;;4909070;29;20062;-58
2021/05/24 04:51:59;;;;;;;0.98;0.60;;;;;;;;;;4916957;29;20032;-60
2021/05/24 04:54:25;;;;;;;1.80;0.50;;;;;;;;;;4918915;29;20032;-60
2021/05/24 04:56:52;;;;;;;4.68;0.75;;;;;;;;;;4907175;29;20046;-61
2021/05/24 04:59:18;;;;;;;1.35;0.70;;;;;;;;;;4921471;29;20048;-58
2021/05/24 05:01:47;;;;;;;2.67;0.60;;;;;;;;;;4906871;29;20052;-59
2021/05/24 05:04:13;;;;;;;;;;;;;;;;;;4921882;29;20033;-58
2021/05/24 05:06:40;;;;;;;2.75;0.57;;;;;;;;;;4902232;29;19931;-60
2021/05/24 05:09:06;;;;;;;3.03;0.60;;;;;;;;;;4908216;29;20044;-59
2021/05/24 05:11:32;;;;;;;2.42;0.70;;;;;;;;;;4904380;29;20071;-59
2021/05/24 05:13:58;;;;;;;1.27;0.55;;;;;;;;;;4907396;29;20051;-59
2021/05/24 05:16:24;;;;;;;2.67;0.52;;;;;;;;;;4922163;29;20040;-60
2021/05/24 05:18:50;;;;;;;3.60;0.52;;;;;;;;;;4907428;29;20051;-58
2021/05/24 05:21:16;;;;;;;3.20;0.70;;;;;;;;;;4921516;29;20047;-60
2021/05/24 05:23:43;;;;;;;0.80;0.52;;;;;;;;;;4923533;29;20052;-59
2021/05/24 05:26:09;;;;;;;4.65;0.50;;;;;;;;;;4902985;29;20059;-58
2021/05/24 05:28:35;;;;;;;0.88;0.47;;;;;;;;;;4920422;29;20060;-60
2021/05/24 05:31:02;;;;;;;2.20;0.65;;;;;;;;;;4900105;29;20108;-57
2021/05/24 05:33:29;;;;;;;4.38;0.68;;;;;;;;;;4907648;29;20064;-59
2021/05/24 05:35:56;;;;;;;3.28;0.68;;;;;;;;;;4920927;29;20052;-59
2021/05/24 05:38:23;;;;;;;4.20;0.70;;;;;;;;;;4907132;29;20111;-61
2021/05/24 05:40:51;;;;;;;3.05;0.60;;;;;;;;;;4905628;29;20402;-61
2021/05/24 05:43:18;;;;;;;2.65;0.95;;;;;;;;;;4909687;29;20032;-61
2021/05/24 05:45:44;;;;;;;3.17;0.77;;;;;;;;;;4924349;29;20032;-60
2021/05/24 05:48:10;;;;;;;1.67;0.70;;;;;;;;;;4906878;29;20149;-58
2021/05/24 05:50:36;;;;;;;2.85;0.90;;;;;;;;;;4902273;29;20156;-59
2021/05/24 05:53:02;;;;;;;1.50;0.70;;;;;;;;;;4920417;29;20044;-61
2021/05/24 05:55:28;;;;;;;2.38;0.68;;;;;;;;;;4909197;29;20104;-60
2021/05/24 05:57:55;;;;;;;4.50;0.73;;;;;;;;;;4922539;29;20085;-59
2021/05/24 06:00:22;;;;;;;4.07;0.70;;;;;;;;;;4909603;29;20043;-61
2021/05/24 06:02:48;;;;;;;1.58;0.57;;;;;;;;;;4918206;29;20053;-61
2021/05/24 06:05:14;;;;;;;1.75;0.60;;;;;;;;;;4922086;29;20107;-57
2021/05/24 06:07:41;;;;;;;1.40;0.50;;;;;;;;;;4921823;29;20056;-61
2021/05/24 06:10:08;;;;;;;5.72;0.60;;;;;;;;;;4915828;29;20040;-62
2021/05/24 06:12:34;;;;;;;2.00;0.50;;;;;;;;;;4905957;29;20044;-62
2021/05/24 06:15:03;;;;;;;2.15;0.60;;;;;;;;;;4909126;29;20146;-61
2021/05/24 06:17:29;;;;;;;;;;;;;;;;;;4922322;29;20076;-56
2021/05/24 06:19:55;;;;;;;1.83;0.43;;;;;;;;;;4925453;29;19918;-61
2021/05/24 06:22:22;;;;;;;1.73;0.40;;;;;;;;;;4927139;29;20060;-62
2021/05/24 06:24:48;;;;;;;0.75;0.43;;;;;;;;;;4906881;29;20040;-60
2021/05/24 06:27:14;;;;;;;3.55;0.57;;;;;;;;;;4922915;29;20052;-60
2021/05/24 06:29:42;;;;;;;3.17;0.50;;;;;;;;;;4907936;29;20127;-61
2021/05/24 06:32:09;;;;;;;1.45;0.50;;;;;;;;;;4926059;29;20089;-62
2021/05/24 06:34:35;;;;;;;1.80;0.50;;;;;;;;;;4906755;29;20043;-62
2021/05/24 06:37:01;;;;;;;2.28;0.70;;;;;;;;;;4911164;29;20063;-62
2021/05/24 06:39:27;;;;;;;2.20;0.70;;;;;;;;;;4915951;29;20064;-60
2021/05/24 06:41:53;;;;;;;0.73;0.47;;;;;;;;;;4910383;29;20051;-61
2021/05/24 06:44:19;;;;;;;0.95;0.63;;;;;;;;;;4923879;29;20040;-61
2021/05/24 06:46:45;;;;;;;1.52;0.47;;;;;;;;;;4926314;29;20119;-61
2021/05/24 06:49:12;;;;;;;1.00;0.50;;;;;;;;;;4908341;29;20036;-59
2021/05/24 06:51:40;;;;;;;0.47;0.40;;;;;;;;;;4909765;29;20168;-61
2021/05/24 06:54:06;;;;;;;1.05;0.50;;;;;;;;;;4906728;29;20047;-60
2021/05/24 06:56:32;;;;;;;2.47;0.57;;;;;;;;;;4910871;29;20099;-60
2021/05/24 06:58:58;;;;;;;3.85;0.82;;;;;;;;;;4905699;29;20060;-60
2021/05/24 07:01:25;;;;;;;3.80;0.60;;;;;;;;;;4926297;29;20047;-60
2021/05/24 07:03:51;;;;;;;0.77;0.50;;;;;;;;;;4924866;29;20084;-59
2021/05/24 07:06:20;;;;;;;4.50;0.60;;;;;;;;;;4907237;29;20053;-59
2021/05/24 07:09:04;;;;;;;2.10;0.73;;;;;;;;;;4899979;29;20064;-60
2021/05/24 07:11:30;;;;;;;3.88;1.25;;;;;;;;;;4923214;29;20052;-59
2021/05/24 07:13:56;;;;;;;1.20;0.60;;;;;;;;;;4926274;29;20048;-59
2021/05/24 07:16:22;;;;;;;2.35;0.70;;;;;;;;;;4919421;29;20054;-59
2021/05/24 07:18:48;;;;;;;2.50;0.90;;;;;;;;;;4923682;29;20036;-59
2021/05/24 07:21:16;;;;;;;4.55;1.13;;;;;;;;;;4909617;29;20045;-58
2021/05/24 07:23:43;;;;;;;3.22;1.10;;;;;;;;;;4927388;29;20076;-59
2021/05/24 07:26:09;;;;;;;1.15;0.80;;;;;;;;;;4907494;29;20035;-59
2021/05/24 07:28:35;;;;;;;3.22;0.80;;;;;;;;;;4908601;29;20050;-61
2021/05/24 07:31:01;;;;;;;1.05;0.63;;;;;;;;;;4905705;29;20051;-59
2021/05/24 07:33:27;;;;;;;0.98;0.43;;;;;;;;;;4909484;29;20047;-60
2021/05/24 07:35:53;;;;;;;2.75;0.73;;;;;;;;;;4906871;29;20044;-59
2021/05/24 07:38:19;;;;;;;1.33;0.70;;;;;;;;;;4909444;29;20052;-59
2021/05/24 07:40:48;;;;;;;4.55;1.10;;;;;;;;;;4906135;29;20055;-61
2021/05/24 07:43:14;;;;;;;2.17;0.63;;;;;;;;;;4899284;29;20048;-59
2021/05/24 07:45:40;;;;;;;1.20;0.70;;;;;;;;;;4908871;29;20063;-60
2021/05/24 07:48:06;;;;;;;7.45;0.90;;;;;;;;;;4905948;29;20044;-59
2021/05/24 07:50:32;;;;;;;1.13;0.70;;;;;;;;;;4909464;29;20052;-60
2021/05/24 07:52:58;;;;;;;1.08;0.50;;;;;;;;;;4918649;29;20048;-59
2021/05/24 07:55:24;;;;;;;5.47;0.60;;;;;;;;;;4891307;29;20048;-60
2021/05/24 07:57:51;;;;;;;0.45;0.43;;;;;;;;;;4913744;29;20056;-60
2021/05/24 08:00:19;;;;;;;1.05;0.50;;;;;;;;;;4906107;29;20044;-60
2021/05/24 08:02:45;;;;;;;1.13;0.60;;;;;;;;;;4921811;29;20036;-59
2021/05/24 08:05:12;;;;;;;1.35;0.70;;;;;;;;;;4907168;29;20036;-60
2021/05/24 08:07:38;;;;;;;3.50;0.80;;;;;;;;;;4905829;29;20039;-60
2021/05/24 08:10:05;;;;;;;2.88;0.80;;;;;;;;;;4925162;29;20052;-61
2021/05/24 08:12:34;;;;;;;1.63;0.65;;;;;;;;;;4906841;29;20051;-58
2021/05/24 08:15:01;;;;;;;3.85;0.75;;;;;;;;;;4908879;29;20051;-59
2021/05/24 08:17:27;;;;;;;1.85;0.65;;;;;;;;;;4906307;29;20036;-61
2021/05/24 08:19:53;;;;;;;1.63;0.63;;;;;;;;;;4909040;29;20055;-59
2021/05/24 08:22:19;;;;;;;1.08;0.50;;;;;;;;;;4922070;29;20103;-59
2021/05/24 08:24:45;;;;;;;0.90;0.60;;;;;;;;;;4908107;29;20095;-59
2021/05/24 08:27:11;;;;;;;3.35;0.55;;;;;;;;;;4892620;29;20128;-60
2021/05/24 08:29:38;;;;;;;2.28;0.80;;;;;;;;;;4904194;29;20035;-60
2021/05/24 08:32:05;;;;;;;1.73;0.52;;;;;;;;;;4908775;29;20143;-59
2021/05/24 08:34:32;;;;;;;2.95;0.80;;;;;;;;;;4905720;29;20108;-61
2021/05/24 08:36:58;;;;;;;3.33;0.88;;;;;;;;;;4907088;29;20044;-59
2021/05/24 08:39:24;;;;;;;2.28;0.77;;;;;;;;;;4905512;29;20055;-59
2021/05/24 08:41:52;;;;;;;2.45;0.73;;;;;;;;;;4908716;29;20063;-60
2021/05/24 08:44:20;;;;;;;1.20;0.68;;;;;;;;;;4910870;29;20048;-61
2021/05/24 08:46:46;;;;;;;1.92;0.50;;;;;;;;;;4890403;29;20056;-59
2021/05/24 08:49:13;;;;;;;1.48;0.50;;;;;;;;;;4896489;29;20036;-61
2021/05/24 08:51:40;;;;;;;3.72;0.70;;;;;;;;;;4910648;29;20024;-58
2021/05/24 08:54:06;;;;;;;2.25;0.70;;;;;;;;;;4905937;29;20055;-59
2021/05/24 08:56:32;;;;;;;1.55;0.70;;;;;;;;;;4909667;29;20050;-60
2021/05/24 08:58:59;;;;;;;3.60;0.93;;;;;;;;;;4905685;29;20059;-59
2021/05/24 09:01:25;;;;;;;5.00;0.80;;;;;;;;;;4882933;29;20056;-58
2021/05/24 09:03:57;;;;;;;1.95;0.68;;;;;;;;;;4922046;29;20098;-59
2021/05/24 09:06:33;;;;;;;1.42;0.75;;;;;;;;;;4907415;29;20131;-59
2021/05/24 09:09:06;;;;;;;2.92;0.75;;;;;;;;;;4903370;29;20159;-60
2021/05/24 09:11:33;;;;;;;3.10;0.88;;;;;;;;;;4888418;29;20059;-59
2021/05/24 09:14:00;;;;;;;6.25;1.20;;;;;;;;;;4899970;29;20056;-59
2021/05/24 09:16:27;;;;;;;2.83;0.90;;;;;;;;;;4925144;29;20044;-59
2021/05/24 09:19:08;;;;;;;3.83;1.08;;;;;;;;;;4910446;29;20054;-58
2021/05/24 09:21:36;;;;;;;1.25;0.70;;;;;;;;;;4925556;29;20048;-59
2021/05/24 09:24:16;;;;;;;1.83;0.70;;;;;;;;;;4909680;29;20051;-60
2021/05/24 09:26:42;;;;;;;0.88;0.55;;;;;;;;;;4919924;29;20131;-59
2021/05/24 09:29:08;;;;;;;2.00;0.70;;;;;;;;;;4910237;29;20048;-59
2021/05/24 09:31:34;;;;;;;1.52;0.60;;;;;;;;;;4907446;29;20043;-59
2021/05/24 09:34:01;;;;;;;2.88;0.82;;;;;;;;;;4911188;29;20048;-58
2021/05/24 09:36:28;;;;;;;2.15;0.82;;;;;;;;;;4907625;29;20036;-60
2021/05/24 09:39:00;;;;;;;0.95;0.60;;;;;;;;;;4911761;29;20056;-60
2021/05/24 09:41:30;;;;;;;1.40;0.68;;;;;;;;;;4905489;29;20048;-60
2021/05/24 09:43:58;;;;;;;2.40;0.70;;;;;;;;;;4910832;29;20048;-60
2021/05/24 09:46:25;;;;;;;1.55;0.70;;;;;;;;;;4906466;29;20051;-60
2021/05/24 09:48:51;;;;;;;2.78;0.70;;;;;;;;;;4911610;29;20043;-60
2021/05/24 09:51:19;;;;;;;1.33;0.70;;;;;;;;;;4907019;29;20032;-59
2021/05/24 09:53:55;;;;;;;2.40;0.80;;;;;;;;;;4927439;29;20040;-59
2021/05/24 09:56:22;;;;;;;1.52;0.80;;;;;;;;;;4905122;29;20064;-59
2021/05/24 09:58:57;;;;;;;1.40;0.65;;;;;;;;;;4890805;29;20040;-60
2021/05/24 10:01:30;;;;;;;2.10;0.70;;;;;;;;;;4909139;29;20028;-60
2021/05/24 10:03:57;;;;;;;2.08;0.98;;;;;;;;;;4926459;29;20044;-59
2021/05/24 10:06:23;;;;;;;1.92;0.85;;;;;;;;;;4908689;29;20040;-59
2021/05/24 10:08:50;;;;;;;1.02;0.73;;;;;;;;;;4929523;29;20063;-60
2021/05/24 10:11:17;;;;;;;1.33;0.90;;;;;;;;;;4929861;29;20043;-59
2021/05/24 10:13:43;;;;;;;2.78;0.90;;;;;;;;;;4908866;29;20088;-60
2021/05/24 10:16:12;;;;;;;3.15;0.82;;;;;;;;;;4926726;29;20054;-59
2021/05/24 10:18:38;;;;;;;1.95;0.70;;;;;;;;;;4925168;29;20122;-59
2021/05/24 10:21:04;;;;;;;2.65;0.75;;;;;;;;;;4910354;29;20048;-59
2021/05/24 10:23:31;;;;;;;1.63;0.85;;;;;;;;;;4907062;29;20051;-60
2021/05/24 10:25:58;;;;;;;1.05;0.73;;;;;;;;;;4911381;29;20043;-59
2021/05/24 10:28:25;;;;;;;1.48;0.77;;;;;;;;;;4918095;29;20040;-60
2021/05/24 10:30:51;;;;;;;2.47;0.73;;;;;;;;;;4908081;29;20051;-59
2021/05/24 10:33:18;;;;;;;3.58;0.70;;;;;;;;;;4912116;29;20048;-59
2021/05/24 10:35:45;;;;;;;2.17;0.60;;;;;;;;;;4926504;29;20048;-59
2021/05/24 10:38:21;;;;;;;2.90;0.90;;;;;;;;;;4920722;29;20040;-63
2021/05/24 10:40:47;;;;;;;3.92;1.20;;;;;;;;;;4911397;29;20076;-59
2021/05/24 10:43:16;;;;;;;4.65;1.67;;;;;;;;;;4906258;29;20035;-59
2021/05/24 10:45:43;;;;;;;1.33;1.10;;;;;;;;;;4925455;29;20060;-60
2021/05/24 10:48:11;;;;;;;2.13;1.20;;;;;;;;;;4905346;29;20095;-60
2021/05/24 10:50:37;;;;;;;5.90;3.50;;;;;;;;;;4910444;29;20135;-61
2021/05/24 10:53:21;;;;;;;1.77;0.98;;;;;;;;;;4908326;29;20286;-61
2021/05/24 10:55:49;;;;;;;2.25;1.10;;;;;;;;;;4892064;29;20051;-59
2021/05/24 10:58:15;;;;;;;;;;;;;;;;;;4881873;29;20053;-59
2021/05/24 11:00:49;;;;;;;2.75;1.40;;;;;;;;;;4920692;29;20043;-60
2021/05/24 11:03:16;;;;;;;8.23;3.15;;;;;;;;;;4906079;29;20051;-59
2021/05/24 11:05:45;;;;;;;8.45;3.35;;;;;;;;;;4918932;29;20084;-59
2021/05/24 11:08:11;;;;;;;3.53;1.58;;;;;;;;;;4906331;29;20037;-59
2021/05/24 11:10:48;;;;;;;1.63;0.98;;;;;;;;;;4919216;29;20036;-59
2021/05/24 11:13:21;;;;;;;2.15;1.17;;;;;;;;;;4907899;29;20036;-61
2021/05/24 11:15:49;;;;;;;2.05;0.98;;;;;;;;;;4902530;29;20054;-60
2021/05/24 11:18:19;;;;;;;2.70;1.30;;;;;;;;;;4926416;29;20039;-61
2021/05/24 11:20:49;;;;;;;3.22;1.50;;;;;;;;;;4906687;29;20095;-61
2021/05/24 11:23:26;;;;;;;4.53;1.73;;;;;;;;;;4910230;29;20036;-59
2021/05/24 11:25:58;;;;;;;2.25;1.20;;;;;;;;;;4888397;29;20043;-59
2021/05/24 11:28:33;;;;;;;2.75;1.30;;;;;;;;;;4910074;29;20123;-60
2021/05/24 11:31:11;;;;;;;3.67;1.15;;;;;;;;;;4923354;29;20044;-60
2021/05/24 11:33:41;;;;;;;3.42;1.40;;;;;;;;;;4909097;29;20061;-60
2021/05/24 11:36:07;;;;;;;3.35;1.30;;;;;;;;;;4916562;29;20032;-61
2021/05/24 11:38:34;;;;;;;5.53;2.10;;;;;;;;;;4925574;29;20044;-61
2021/05/24 11:41:07;;;;;;;2.55;1.20;;;;;;;;;;4915442;29;20039;-60
2021/05/24 11:43:33;;;;;;;4.60;1.50;;;;;;;;;;4926655;29;20059;-61
2021/05/24 11:46:02;;;;;;;1.98;1.05;;;;;;;;;;4917371;29;20032;-61
2021/05/24 11:48:34;;;;;;;2.30;0.82;;;;;;;;;;4909176;29;20047;-61
2021/05/24 11:51:03;;;;;;;5.90;1.35;;;;;;;;;;4922295;29;20062;-60
2021/05/24 11:53:29;;;;;;;3.60;1.45;;;;;;;;;;4925314;29;20047;-59
2021/05/24 11:56:05;;;;;;;4.05;1.85;;;;;;;;;;4906220;29;20055;-60
2021/05/24 11:58:31;;;;;;;2.05;1.20;;;;;;;;;;4925073;29;20044;-60
2021/05/24 12:01:01;;;;;;;4.65;1.73;;;;;;;;;;4906290;29;20058;-60
2021/05/24 12:03:29;;;;;;;2.17;1.33;;;;;;;;;;4909575;29;20095;-61
2021/05/24 12:05:59;;;;;;;3.65;1.65;;;;;;;;;;4907249;29;20122;-59
2021/05/24 12:08:27;;;;;;;7.18;2.40;;;;;;;;;;4907922;29;20044;-61
2021/05/24 12:11:00;;;;;;;1.70;1.08;;;;;;;;;;4925675;29;20044;-61
2021/05/24 12:13:26;;;;;;;4.35;1.10;;;;;;;;;;4917709;29;20131;-60
2021/05/24 12:16:01;;;;;;;2.85;1.45;;;;;;;;;;4891305;29;20048;-60
2021/05/24 12:18:30;;;;;;;2.55;1.20;;;;;;;;;;4916500;29;20048;-60
2021/05/24 12:21:02;;;;;;;4.18;0.70;;;;;;;;;;4913277;29;20048;-61
2021/05/24 12:23:27;;;;;;;1.90;0.90;;;;;;;;;;4919694;29;20040;-59
2021/05/24 12:25:54;;;;;;;1.33;0.75;;;;;;;;;;4922361;29;20063;-62
2021/05/24 12:28:20;;;;;;;1.52;0.75;;;;;;;;;;4900912;29;20036;-61
2021/05/24 12:30:52;;;;;;;;;;;;;;;;;;4924619;29;20046;-60
2021/05/24 12:33:20;;;;;;;2.17;0.80;;;;;;;;;;4904633;29;19938;-61
2021/05/24 12:35:49;;;;;;;1.20;0.52;;;;;;;;;;4924625;29;20040;-60
2021/05/24 12:38:17;;;;;;;;;;;;;;;;;;4918200;29;20044;-61
2021/05/24 12:40:45;;;;;;;0.73;0.70;;;;;;;;;;4907719;29;19979;-62
2021/05/24 12:43:11;;;;;;;1.60;0.57;;;;;;;;;;4905336;29;20039;-61
2021/05/24 12:45:37;;;;;;;1.02;0.70;;;;;;;;;;4925897;29;20055;-60
2021/05/24 12:48:11;;;;;;;1.67;0.80;;;;;;;;;;4905153;29;20046;-62
2021/05/24 12:50:37;;;;;;;2.25;0.75;;;;;;;;;;4912854;29;20055;-62
2021/05/24 12:53:10;;;;;;;0.73;0.60;;;;;;;;;;4911279;29;20147;-61
2021/05/24 12:55:37;;;;;;;2.35;0.90;;;;;;;;;;4914194;29;20040;-60
2021/05/24 12:58:10;;;;;;;1.00;0.65;;;;;;;;;;4911673;29;20058;-60
2021/05/24 13:00:39;;;;;;;1.05;0.77;;;;;;;;;;4915610;29;20047;-60
2021/05/24 13:03:06;;;;;;;2.33;0.68;;;;;;;;;;4930967;29;20055;-61
2021/05/24 13:05:32;;;;;;;0.95;0.70;;;;;;;;;;4910737;29;20044;-61
2021/05/24 13:07:58;;;;;;;1.23;0.70;;;;;;;;;;4897536;29;20048;-61
2021/05/24 13:10:27;;;;;;;1.92;0.70;;;;;;;;;;4925545;29;20103;-63
2021/05/24 13:12:59;;;;;;;1.15;0.60;;;;;;;;;;4930490;29;20048;-61
2021/05/24 13:15:32;;;;;;;4.00;0.63;;;;;;;;;;4925855;29;20036;-62
2021/05/24 13:18:02;;;;;;;0.73;0.60;;;;;;;;;;4912804;29;20036;-60
2021/05/24 13:20:41;;;;;;;2.70;0.80;;;;;;;;;;4922647;29;20035;-62
2021/05/24 13:29:08;;;;;;;1.52;0.80;;;;;;;;;;4854575;29;20049;-61
2021/05/24 13:31:37;;;;;;;3.55;0.80;;;;;;;;;;4880505;29;20055;-61
2021/05/24 13:34:04;;;;;;;2.30;1.00;;;;;;;;;;4929850;29;20066;-61
2021/05/24 13:36:31;;;;;;;2.28;0.80;;;;;;;;;;4926263;29;20059;-62
2021/05/24 13:39:01;;;;;;;1.58;0.90;;;;;;;;;;4931168;29;20148;-60
2021/05/24 13:41:27;;;;;;;2.25;1.00;;;;;;;;;;4924823;29;20057;-60
2021/05/24 13:43:54;;;;;;;1.83;0.85;;;;;;;;;;4913603;29;20079;-61
2021/05/24 13:46:21;;;;;;;0.90;0.70;;;;;;;;;;4914049;29;20055;-61
2021/05/24 13:48:48;;;;;;;2.85;1.27;;;;;;;;;;4913813;29;20047;-60
2021/05/24 13:51:17;;;;;;;6.18;1.33;;;;;;;;;;4925533;29;20074;-60
2021/05/24 13:53:43;;;;;;;1.75;0.75;;;;;;;;;;4914214;29;20050;-61
2021/05/24 13:56:09;;;;;;;1.55;0.80;;;;;;;;;;4894652;29;20054;-62
2021/05/24 13:58:35;;;;;;;1.90;0.80;;;;;;;;;;4915213;29;20032;-60
2021/05/24 14:01:01;;;;;;;1.13;0.90;;;;;;;;;;4927396;29;20047;-62
2021/05/24 14:03:27;;;;;;;3.03;0.85;;;;;;;;;;4925882;29;20110;-61
2021/05/24 14:05:54;;;;;;;2.25;1.05;;;;;;;;;;4909082;29;20064;-61
2021/05/24 14:08:21;;;;;;;1.30;1.00;;;;;;;;;;4910761;29;20051;-61
2021/05/24 14:10:47;;;;;;;2.60;1.10;;;;;;;;;;4907668;29;20059;-62
2021/05/24 14:13:16;;;;;;;1.83;0.90;;;;;;;;;;4923527;29;20044;-60
2021/05/24 14:15:42;;;;;;;1.63;0.90;;;;;;;;;;4891291;29;20050;-60
2021/05/24 14:18:10;;;;;;;2.33;1.02;;;;;;;;;;4905983;29;20043;-61
2021/05/24 14:20:36;;;;;;;4.57;1.27;;;;;;;;;;4926637;29;20067;-62
2021/05/24 14:23:03;;;;;;;1.55;0.90;;;;;;;;;;4915591;29;20050;-60
2021/05/24 14:25:29;;;;;;;3.38;1.17;;;;;;;;;;4906350;29;20062;-60
2021/05/24 14:27:55;;;;;;;2.72;1.20;;;;;;;;;;4898618;29;20048;-62
2021/05/24 14:30:25;;;;;;;1.88;0.93;;;;;;;;;;4924256;29;20044;-61
2021/05/24 14:32:52;;;;;;;1.85;1.00;;;;;;;;;;4906113;29;20044;-61
2021/05/24 14:35:18;;;;;;;1.98;0.90;;;;;;;;;;4909959;29;20044;-61
2021/05/24 14:37:44;;;;;;;2.20;1.00;;;;;;;;;;4914799;29;20123;-60
2021/05/24 14:40:13;;;;;;;1.85;0.95;;;;;;;;;;4892391;29;20055;-61
2021/05/24 14:42:39;;;;;;;5.65;1.77;;;;;;;;;;4911587;28;20047;-61
2021/05/24 14:45:07;;;;;;;3.72;1.30;;;;;;;;;;4931642;29;20050;-61
2021/05/24 14:47:33;;;;;;;2.97;1.02;;;;;;;;;;4923574;29;20056;-60
2021/05/24 14:50:02;;;;;;;3.63;0.85;;;;;;;;;;4926313;29;20156;-61
2021/05/24 14:52:30;;;;;;;4.75;1.05;;;;;;;;;;4908226;29;20051;-61